sensor_id;sensor_type;location;lat;lon;timestamp;P1;durP1;ratioP1;P2;durP2;ratioP2
78774;SDS011;68119;43.398;3.676;2024-03-22T08:01:04;11.48;;;4.15;;
78774;SDS011;68119;43.398;3.676;2024-03-22T08:03:35;10.90;;;4.03;;
78774;SDS011;68119;43.398;3.676;2024-03-22T08:06:20;11.90;;;4.07;;
78774;SDS011;68119;43.398;3.676;2024-03-22T08:08:46;11.75;;;3.75;;
78774;SDS011;68119;43.398;3.676;2024-03-22T08:11:22;12.00;;;3.70;;
78774;SDS011;68119;43.398;3.676;2024-03-22T08:29:27;6.45;;;2.70;;
78774;SDS011;68119;43.398;3.676;2024-03-22T08:34:37;4.57;;;2.40;;
78774;SDS011;68119;43.398;3.676;2024-03-22T08:37:04;6.45;;;2.30;;
78774;SDS011;68119;43.398;3.676;2024-03-22T08:41:56;5.38;;;2.60;;
78774;SDS011;68119;43.398;3.676;2024-03-22T08:52:11;8.38;;;2.40;;
78774;SDS011;68119;43.398;3.676;2024-03-22T08:57:29;7.15;;;2.30;;
78774;SDS011;68119;43.398;3.676;2024-03-22T08:59:56;3.85;;;2.38;;
78774;SDS011;68119;43.398;3.676;2024-03-22T09:02:25;3.75;;;2.22;;
78774;SDS011;68119;43.398;3.676;2024-03-22T09:04:52;5.53;;;2.15;;
78774;SDS011;68119;43.398;3.676;2024-03-22T09:07:19;4.05;;;1.90;;
78774;SDS011;68119;43.398;3.676;2024-03-22T09:09:46;3.95;;;2.00;;
78774;SDS011;68119;43.398;3.676;2024-03-22T09:12:12;5.28;;;2.10;;
78774;SDS011;68119;43.398;3.676;2024-03-22T09:14:39;7.00;;;2.35;;
78774;SDS011;68119;43.398;3.676;2024-03-22T09:17:08;7.25;;;2.60;;
78774;SDS011;68119;43.398;3.676;2024-03-22T09:19:41;6.35;;;2.60;;
78774;SDS011;68119;43.398;3.676;2024-03-22T09:22:13;6.47;;;2.47;;
78774;SDS011;68119;43.398;3.676;2024-03-22T09:24:43;7.22;;;2.40;;
78774;SDS011;68119;43.398;3.676;2024-03-22T09:27:10;3.55;;;1.90;;
78774;SDS011;68119;43.398;3.676;2024-03-22T09:29:36;4.05;;;2.03;;
78774;SDS011;68119;43.398;3.676;2024-03-22T09:32:06;6.63;;;2.10;;
78774;SDS011;68119;43.398;3.676;2024-03-22T09:34:32;4.15;;;2.05;;
78774;SDS011;68119;43.398;3.676;2024-03-22T09:37:02;6.72;;;2.20;;
78774;SDS011;68119;43.398;3.676;2024-03-22T09:39:28;5.47;;;2.33;;
78774;SDS011;68119;43.398;3.676;2024-03-22T09:41:56;5.63;;;2.33;;
78774;SDS011;68119;43.398;3.676;2024-03-22T09:44:49;3.03;;;2.05;;
78774;SDS011;68119;43.398;3.676;2024-03-22T09:47:38;5.15;;;2.20;;
78774;SDS011;68119;43.398;3.676;2024-03-22T09:50:08;2.17;;;1.70;;
78774;SDS011;68119;43.398;3.676;2024-03-22T09:52:42;7.80;;;2.15;;
78774;SDS011;68119;43.398;3.676;2024-03-22T09:55:11;3.47;;;2.00;;
78774;SDS011;68119;43.398;3.676;2024-03-22T09:57:40;4.85;;;2.30;;
78774;SDS011;68119;43.398;3.676;2024-03-22T10:00:09;4.72;;;1.95;;
78774;SDS011;68119;43.398;3.676;2024-03-22T10:02:39;3.35;;;2.03;;
78774;SDS011;68119;43.398;3.676;2024-03-22T10:05:13;7.43;;;2.22;;
78774;SDS011;68119;43.398;3.676;2024-03-22T10:07:40;8.18;;;1.88;;
78774;SDS011;68119;43.398;3.676;2024-03-22T10:10:07;5.97;;;2.47;;
78774;SDS011;68119;43.398;3.676;2024-03-22T10:12:33;4.18;;;1.88;;
78774;SDS011;68119;43.398;3.676;2024-03-22T10:15:08;4.18;;;2.10;;
78774;SDS011;68119;43.398;3.676;2024-03-22T10:17:34;4.40;;;2.33;;
78774;SDS011;68119;43.398;3.676;2024-03-22T10:20:06;4.18;;;2.38;;
78774;SDS011;68119;43.398;3.676;2024-03-22T10:22:42;5.07;;;1.92;;
78774;SDS011;68119;43.398;3.676;2024-03-22T10:25:11;2.15;;;1.65;;
78774;SDS011;68119;43.398;3.676;2024-03-22T10:27:43;2.97;;;1.75;;
78774;SDS011;68119;43.398;3.676;2024-03-22T10:30:12;4.20;;;2.10;;
78774;SDS011;68119;43.398;3.676;2024-03-22T10:32:47;3.95;;;1.88;;
78774;SDS011;68119;43.398;3.676;2024-03-22T10:35:17;4.07;;;1.90;;
78774;SDS011;68119;43.398;3.676;2024-03-22T10:37:43;2.55;;;1.90;;
78774;SDS011;68119;43.398;3.676;2024-03-22T10:40:13;5.40;;;1.92;;
78774;SDS011;68119;43.398;3.676;2024-03-22T10:42:42;4.05;;;2.10;;
78774;SDS011;68119;43.398;3.676;2024-03-22T10:45:09;4.18;;;1.90;;
78774;SDS011;68119;43.398;3.676;2024-03-22T10:47:38;4.93;;;2.10;;
78774;SDS011;68119;43.398;3.676;2024-03-22T10:50:12;3.38;;;2.10;;
78774;SDS011;68119;43.398;3.676;2024-03-22T10:52:45;4.55;;;2.30;;
78774;SDS011;68119;43.398;3.676;2024-03-22T10:55:17;4.10;;;2.00;;
78774;SDS011;68119;43.398;3.676;2024-03-22T10:57:48;2.45;;;1.63;;
78774;SDS011;68119;43.398;3.676;2024-03-22T11:00:16;7.80;;;1.90;;
78774;SDS011;68119;43.398;3.676;2024-03-22T11:02:49;6.05;;;2.08;;
78774;SDS011;68119;43.398;3.676;2024-03-22T11:05:21;3.72;;;2.08;;
78774;SDS011;68119;43.398;3.676;2024-03-22T11:07:48;2.97;;;1.85;;
78774;SDS011;68119;43.398;3.676;2024-03-22T11:10:44;7.88;;;2.20;;
78774;SDS011;68119;43.398;3.676;2024-03-22T11:13:15;5.85;;;2.17;;
78774;SDS011;68119;43.398;3.676;2024-03-22T11:15:50;4.95;;;2.30;;
78774;SDS011;68119;43.398;3.676;2024-03-22T11:18:22;7.70;;;2.10;;
78774;SDS011;68119;43.398;3.676;2024-03-22T11:20:53;5.63;;;2.20;;
78774;SDS011;68119;43.398;3.676;2024-03-22T11:23:24;4.97;;;2.00;;
78774;SDS011;68119;43.398;3.676;2024-03-22T11:25:53;7.88;;;2.20;;
78774;SDS011;68119;43.398;3.676;2024-03-22T11:28:24;5.05;;;2.00;;
78774;SDS011;68119;43.398;3.676;2024-03-22T11:30:50;4.80;;;2.25;;
78774;SDS011;68119;43.398;3.676;2024-03-22T11:33:24;7.47;;;2.35;;
78774;SDS011;68119;43.398;3.676;2024-03-22T11:35:52;6.03;;;2.28;;
78774;SDS011;68119;43.398;3.676;2024-03-22T11:38:19;4.65;;;1.90;;
78774;SDS011;68119;43.398;3.676;2024-03-22T11:40:55;6.57;;;2.10;;
78774;SDS011;68119;43.398;3.676;2024-03-22T11:43:27;8.18;;;2.17;;
78774;SDS011;68119;43.398;3.676;2024-03-22T11:45:55;6.07;;;2.05;;
78774;SDS011;68119;43.398;3.676;2024-03-22T11:48:26;6.63;;;2.03;;
78774;SDS011;68119;43.398;3.676;2024-03-22T11:50:52;4.38;;;2.15;;
78774;SDS011;68119;43.398;3.676;2024-03-22T11:56:02;6.93;;;2.13;;
78774;SDS011;68119;43.398;3.676;2024-03-22T11:58:31;6.88;;;2.22;;
78774;SDS011;68119;43.398;3.676;2024-03-22T12:00:57;5.43;;;2.25;;
78774;SDS011;68119;43.398;3.676;2024-03-22T12:03:26;5.00;;;1.83;;
78774;SDS011;68119;43.398;3.676;2024-03-22T12:05:59;4.93;;;1.90;;
78774;SDS011;68119;43.398;3.676;2024-03-22T12:08:34;7.28;;;2.20;;
78774;SDS011;68119;43.398;3.676;2024-03-22T12:11:08;4.32;;;2.00;;
78774;SDS011;68119;43.398;3.676;2024-03-22T12:13:58;6.95;;;2.22;;
78774;SDS011;68119;43.398;3.676;2024-03-22T12:16:25;4.97;;;2.13;;
78774;SDS011;68119;43.398;3.676;2024-03-22T12:18:53;5.80;;;2.03;;
78774;SDS011;68119;43.398;3.676;2024-03-22T12:21:23;3.57;;;2.10;;
78774;SDS011;68119;43.398;3.676;2024-03-22T12:23:49;3.95;;;2.08;;
78774;SDS011;68119;43.398;3.676;2024-03-22T12:26:16;4.78;;;2.20;;
78774;SDS011;68119;43.398;3.676;2024-03-22T12:28:42;4.47;;;2.00;;
78774;SDS011;68119;43.398;3.676;2024-03-22T12:31:11;6.05;;;2.47;;
78774;SDS011;68119;43.398;3.676;2024-03-22T12:33:43;11.32;;;2.40;;
78774;SDS011;68119;43.398;3.676;2024-03-22T12:36:12;4.68;;;2.13;;
78774;SDS011;68119;43.398;3.676;2024-03-22T12:38:39;5.40;;;1.80;;
78774;SDS011;68119;43.398;3.676;2024-03-22T12:41:05;4.25;;;2.25;;
78774;SDS011;68119;43.398;3.676;2024-03-22T12:43:35;4.78;;;2.47;;
78774;SDS011;68119;43.398;3.676;2024-03-22T12:46:03;5.03;;;2.08;;
78774;SDS011;68119;43.398;3.676;2024-03-22T12:48:32;10.13;;;2.70;;
78774;SDS011;68119;43.398;3.676;2024-03-22T12:50:59;7.57;;;2.60;;
78774;SDS011;68119;43.398;3.676;2024-03-22T12:53:26;6.32;;;2.67;;
78774;SDS011;68119;43.398;3.676;2024-03-22T12:55:52;6.57;;;2.47;;
78774;SDS011;68119;43.398;3.676;2024-03-22T12:58:18;6.63;;;2.30;;
78774;SDS011;68119;43.398;3.676;2024-03-22T13:00:45;4.82;;;2.38;;
78774;SDS011;68119;43.398;3.676;2024-03-22T13:03:14;5.85;;;2.33;;
78774;SDS011;68119;43.398;3.676;2024-03-22T13:05:43;4.95;;;2.30;;
78774;SDS011;68119;43.398;3.676;2024-03-22T13:08:15;6.47;;;2.20;;
78774;SDS011;68119;43.398;3.676;2024-03-22T13:10:41;5.60;;;2.30;;
78774;SDS011;68119;43.398;3.676;2024-03-22T13:13:09;4.65;;;2.42;;
78774;SDS011;68119;43.398;3.676;2024-03-22T13:15:41;4.38;;;2.40;;
78774;SDS011;68119;43.398;3.676;2024-03-22T13:18:15;6.35;;;2.42;;
78774;SDS011;68119;43.398;3.676;2024-03-22T13:20:46;4.60;;;2.45;;
78774;SDS011;68119;43.398;3.676;2024-03-22T13:23:14;4.63;;;2.33;;
78774;SDS011;68119;43.398;3.676;2024-03-22T13:25:41;6.13;;;2.67;;
78774;SDS011;68119;43.398;3.676;2024-03-22T13:28:09;7.30;;;2.40;;
78774;SDS011;68119;43.398;3.676;2024-03-22T13:30:35;4.05;;;2.38;;
78774;SDS011;68119;43.398;3.676;2024-03-22T13:33:05;6.20;;;2.67;;
78774;SDS011;68119;43.398;3.676;2024-03-22T13:35:34;5.57;;;2.73;;
78774;SDS011;68119;43.398;3.676;2024-03-22T13:38:00;5.80;;;2.75;;
78774;SDS011;68119;43.398;3.676;2024-03-22T13:40:32;5.18;;;2.85;;
78774;SDS011;68119;43.398;3.676;2024-03-22T13:43:03;8.07;;;2.80;;
78774;SDS011;68119;43.398;3.676;2024-03-22T13:45:38;5.63;;;2.92;;
78774;SDS011;68119;43.398;3.676;2024-03-22T13:48:09;6.65;;;2.65;;
78774;SDS011;68119;43.398;3.676;2024-03-22T13:50:39;7.47;;;2.80;;
78774;SDS011;68119;43.398;3.676;2024-03-22T13:53:06;7.85;;;3.45;;
78774;SDS011;68119;43.398;3.676;2024-03-22T13:55:33;9.90;;;3.28;;
78774;SDS011;68119;43.398;3.676;2024-03-22T13:57:59;5.93;;;2.92;;
78774;SDS011;68119;43.398;3.676;2024-03-22T14:00:26;6.22;;;3.05;;
78774;SDS011;68119;43.398;3.676;2024-03-22T14:02:53;6.47;;;3.15;;
78774;SDS011;68119;43.398;3.676;2024-03-22T14:05:20;8.43;;;3.42;;
78774;SDS011;68119;43.398;3.676;2024-03-22T14:07:51;5.97;;;3.10;;
78774;SDS011;68119;43.398;3.676;2024-03-22T14:10:20;9.95;;;3.25;;
78774;SDS011;68119;43.398;3.676;2024-03-22T14:12:47;8.98;;;3.30;;
78774;SDS011;68119;43.398;3.676;2024-03-22T14:15:14;5.95;;;2.90;;
78774;SDS011;68119;43.398;3.676;2024-03-22T14:17:48;8.98;;;3.25;;
78774;SDS011;68119;43.398;3.676;2024-03-22T14:20:16;5.97;;;2.85;;
78774;SDS011;68119;43.398;3.676;2024-03-22T14:22:43;7.28;;;3.53;;
78774;SDS011;68119;43.398;3.676;2024-03-22T14:25:13;7.03;;;2.70;;
78774;SDS011;68119;43.398;3.676;2024-03-22T14:27:42;6.80;;;2.70;;
78774;SDS011;68119;43.398;3.676;2024-03-22T14:30:14;9.23;;;3.70;;
78774;SDS011;68119;43.398;3.676;2024-03-22T14:32:40;11.07;;;4.47;;
78774;SDS011;68119;43.398;3.676;2024-03-22T14:35:10;8.73;;;4.88;;
78774;SDS011;68119;43.398;3.676;2024-03-22T14:37:42;15.35;;;5.43;;
78774;SDS011;68119;43.398;3.676;2024-03-22T14:40:11;12.38;;;5.85;;
78774;SDS011;68119;43.398;3.676;2024-03-22T14:42:39;18.17;;;6.05;;
78774;SDS011;68119;43.398;3.676;2024-03-22T14:45:08;16.00;;;7.13;;
78774;SDS011;68119;43.398;3.676;2024-03-22T14:47:37;15.90;;;6.47;;
78774;SDS011;68119;43.398;3.676;2024-03-22T14:50:07;21.08;;;8.07;;
78774;SDS011;68119;43.398;3.676;2024-03-22T14:52:36;15.80;;;6.53;;
78774;SDS011;68119;43.398;3.676;2024-03-22T14:55:03;14.80;;;6.55;;
78774;SDS011;68119;43.398;3.676;2024-03-22T14:57:29;24.20;;;7.53;;
78774;SDS011;68119;43.398;3.676;2024-03-22T14:59:55;16.35;;;7.20;;
78774;SDS011;68119;43.398;3.676;2024-03-22T15:02:24;15.35;;;6.78;;
78774;SDS011;68119;43.398;3.676;2024-03-22T15:04:53;15.68;;;6.72;;
78774;SDS011;68119;43.398;3.676;2024-03-22T15:07:20;13.55;;;5.97;;
78774;SDS011;68119;43.398;3.676;2024-03-22T15:09:51;16.30;;;6.85;;
78774;SDS011;68119;43.398;3.676;2024-03-22T15:12:20;12.63;;;7.05;;
78774;SDS011;68119;43.398;3.676;2024-03-22T15:14:46;18.13;;;6.50;;
78774;SDS011;68119;43.398;3.676;2024-03-22T15:17:18;15.45;;;7.05;;
78774;SDS011;68119;43.398;3.676;2024-03-22T15:19:50;14.25;;;6.90;;
78774;SDS011;68119;43.398;3.676;2024-03-22T15:22:16;19.33;;;7.40;;
78774;SDS011;68119;43.398;3.676;2024-03-22T15:24:48;13.05;;;6.75;;
78774;SDS011;68119;43.398;3.676;2024-03-22T15:27:19;15.60;;;7.00;;
78774;SDS011;68119;43.398;3.676;2024-03-22T15:29:48;13.95;;;6.18;;
78774;SDS011;68119;43.398;3.676;2024-03-22T15:32:20;17.95;;;7.53;;
78774;SDS011;68119;43.398;3.676;2024-03-22T15:37:17;14.43;;;7.13;;
78774;SDS011;68119;43.398;3.676;2024-03-22T15:39:46;15.52;;;7.68;;
78774;SDS011;68119;43.398;3.676;2024-03-22T15:42:17;19.90;;;8.10;;
78774;SDS011;68119;43.398;3.676;2024-03-22T15:44:44;18.83;;;7.22;;
78774;SDS011;68119;43.398;3.676;2024-03-22T15:49:42;19.33;;;8.43;;
78774;SDS011;68119;43.398;3.676;2024-03-22T15:52:11;18.25;;;8.10;;
78774;SDS011;68119;43.398;3.676;2024-03-22T15:54:39;21.88;;;8.82;;
78774;SDS011;68119;43.398;3.676;2024-03-22T15:57:06;16.73;;;8.50;;
78774;SDS011;68119;43.398;3.676;2024-03-22T15:59:33;18.35;;;8.93;;
78774;SDS011;68119;43.398;3.676;2024-03-22T16:04:56;13.60;;;7.93;;
78774;SDS011;68119;43.398;3.676;2024-03-22T16:07:25;21.15;;;9.40;;
78774;SDS011;68119;43.398;3.676;2024-03-22T16:09:54;19.90;;;9.48;;
78774;SDS011;68119;43.398;3.676;2024-03-22T16:12:23;18.20;;;8.60;;
78774;SDS011;68119;43.398;3.676;2024-03-22T16:14:49;16.42;;;9.40;;
78774;SDS011;68119;43.398;3.676;2024-03-22T16:17:16;19.25;;;9.57;;
78774;SDS011;68119;43.398;3.676;2024-03-22T16:19:43;20.02;;;9.77;;
78774;SDS011;68119;43.398;3.676;2024-03-22T16:22:22;21.17;;;9.93;;
78774;SDS011;68119;43.398;3.676;2024-03-22T16:24:49;19.30;;;9.40;;
78774;SDS011;68119;43.398;3.676;2024-03-22T16:27:20;22.90;;;10.07;;
78774;SDS011;68119;43.398;3.676;2024-03-22T16:29:49;17.42;;;9.15;;
78774;SDS011;68119;43.398;3.676;2024-03-22T16:32:20;19.05;;;9.68;;
78774;SDS011;68119;43.398;3.676;2024-03-22T16:34:51;17.05;;;8.40;;
78774;SDS011;68119;43.398;3.676;2024-03-22T16:37:22;20.98;;;10.50;;
78774;SDS011;68119;43.398;3.676;2024-03-22T16:42:20;15.57;;;9.38;;
78774;SDS011;68119;43.398;3.676;2024-03-22T16:44:52;17.13;;;10.18;;
78774;SDS011;68119;43.398;3.676;2024-03-22T16:47:20;21.58;;;9.50;;
78774;SDS011;68119;43.398;3.676;2024-03-22T16:49:50;20.83;;;9.18;;
78774;SDS011;68119;43.398;3.676;2024-03-22T16:52:16;21.00;;;10.20;;
78774;SDS011;68119;43.398;3.676;2024-03-22T16:54:47;16.75;;;9.23;;
78774;SDS011;68119;43.398;3.676;2024-03-22T16:57:13;19.52;;;9.65;;
78774;SDS011;68119;43.398;3.676;2024-03-22T16:59:40;33.15;;;10.40;;
78774;SDS011;68119;43.398;3.676;2024-03-22T17:04:44;21.58;;;10.27;;
78774;SDS011;68119;43.398;3.676;2024-03-22T17:07:13;22.25;;;10.18;;
78774;SDS011;68119;43.398;3.676;2024-03-22T17:12:13;16.30;;;9.48;;
78774;SDS011;68119;43.398;3.676;2024-03-22T17:14:39;18.02;;;9.73;;
78774;SDS011;68119;43.398;3.676;2024-03-22T17:17:05;22.63;;;9.88;;
78774;SDS011;68119;43.398;3.676;2024-03-22T17:19:32;22.50;;;10.13;;
78774;SDS011;68119;43.398;3.676;2024-03-22T17:21:59;29.65;;;10.63;;
78774;SDS011;68119;43.398;3.676;2024-03-22T17:24:29;16.92;;;10.52;;
78774;SDS011;68119;43.398;3.676;2024-03-22T17:26:55;16.23;;;9.63;;
78774;SDS011;68119;43.398;3.676;2024-03-22T17:29:33;19.00;;;9.55;;
78774;SDS011;68119;43.398;3.676;2024-03-22T17:31:59;19.80;;;9.80;;
78774;SDS011;68119;43.398;3.676;2024-03-22T17:34:28;22.67;;;9.18;;
78774;SDS011;68119;43.398;3.676;2024-03-22T17:36:57;18.40;;;9.73;;
78774;SDS011;68119;43.398;3.676;2024-03-22T17:39:23;17.95;;;8.98;;
78774;SDS011;68119;43.398;3.676;2024-03-22T17:41:49;20.95;;;10.63;;
78774;SDS011;68119;43.398;3.676;2024-03-22T17:44:21;24.60;;;11.13;;
78774;SDS011;68119;43.398;3.676;2024-03-22T17:46:51;17.85;;;11.02;;
78774;SDS011;68119;43.398;3.676;2024-03-22T17:49:22;20.33;;;9.98;;
78774;SDS011;68119;43.398;3.676;2024-03-22T17:51:48;22.75;;;10.98;;
78774;SDS011;68119;43.398;3.676;2024-03-22T17:54:18;15.68;;;9.98;;
78774;SDS011;68119;43.398;3.676;2024-03-22T17:56:47;17.50;;;9.95;;
78774;SDS011;68119;43.398;3.676;2024-03-22T17:59:19;24.38;;;10.85;;
78774;SDS011;68119;43.398;3.676;2024-03-22T18:01:45;20.20;;;10.23;;
78774;SDS011;68119;43.398;3.676;2024-03-22T18:04:23;19.30;;;10.38;;
78774;SDS011;68119;43.398;3.676;2024-03-22T18:06:50;18.92;;;9.55;;
78774;SDS011;68119;43.398;3.676;2024-03-22T18:09:19;19.23;;;10.15;;
78774;SDS011;68119;43.398;3.676;2024-03-22T18:11:45;18.55;;;9.77;;
78774;SDS011;68119;43.398;3.676;2024-03-22T18:14:15;18.15;;;9.77;;
78774;SDS011;68119;43.398;3.676;2024-03-22T18:16:44;20.08;;;10.05;;
78774;SDS011;68119;43.398;3.676;2024-03-22T18:19:21;17.10;;;9.45;;
78774;SDS011;68119;43.398;3.676;2024-03-22T18:21:51;19.13;;;10.25;;
78774;SDS011;68119;43.398;3.676;2024-03-22T18:24:20;19.52;;;10.10;;
78774;SDS011;68119;43.398;3.676;2024-03-22T18:26:46;26.08;;;10.27;;
78774;SDS011;68119;43.398;3.676;2024-03-22T18:29:19;19.20;;;9.95;;
78774;SDS011;68119;43.398;3.676;2024-03-22T18:31:48;18.98;;;9.38;;
78774;SDS011;68119;43.398;3.676;2024-03-22T18:34:19;21.75;;;10.60;;
78774;SDS011;68119;43.398;3.676;2024-03-22T18:36:45;24.00;;;10.43;;
78774;SDS011;68119;43.398;3.676;2024-03-22T18:39:21;20.83;;;9.90;;
78774;SDS011;68119;43.398;3.676;2024-03-22T18:41:50;21.20;;;10.90;;
78774;SDS011;68119;43.398;3.676;2024-03-22T18:44:16;23.17;;;10.23;;
78774;SDS011;68119;43.398;3.676;2024-03-22T18:46:43;24.40;;;10.65;;
78774;SDS011;68119;43.398;3.676;2024-03-22T18:49:12;20.98;;;10.43;;
78774;SDS011;68119;43.398;3.676;2024-03-22T18:51:38;22.80;;;10.25;;
78774;SDS011;68119;43.398;3.676;2024-03-22T18:54:05;20.90;;;10.38;;
78774;SDS011;68119;43.398;3.676;2024-03-22T18:56:31;19.35;;;10.68;;
78774;SDS011;68119;43.398;3.676;2024-03-22T18:58:58;18.73;;;9.68;;
78774;SDS011;68119;43.398;3.676;2024-03-22T19:01:27;18.38;;;9.88;;
78774;SDS011;68119;43.398;3.676;2024-03-22T19:03:56;23.40;;;11.45;;
78774;SDS011;68119;43.398;3.676;2024-03-22T19:09:02;22.42;;;10.85;;
78774;SDS011;68119;43.398;3.676;2024-03-22T19:11:35;21.50;;;10.80;;
78774;SDS011;68119;43.398;3.676;2024-03-22T19:16:46;19.45;;;9.93;;
78774;SDS011;68119;43.398;3.676;2024-03-22T19:19:15;21.05;;;10.80;;
78774;SDS011;68119;43.398;3.676;2024-03-22T19:21:51;21.35;;;10.73;;
78774;SDS011;68119;43.398;3.676;2024-03-22T19:24:20;25.88;;;10.77;;
78774;SDS011;68119;43.398;3.676;2024-03-22T19:26:49;19.52;;;10.25;;
78774;SDS011;68119;43.398;3.676;2024-03-22T19:29:16;19.90;;;11.10;;
78774;SDS011;68119;43.398;3.676;2024-03-22T19:31:42;23.50;;;10.60;;
78774;SDS011;68119;43.398;3.676;2024-03-22T19:34:12;19.13;;;10.43;;
78774;SDS011;68119;43.398;3.676;2024-03-22T19:36:52;21.48;;;10.52;;
78774;SDS011;68119;43.398;3.676;2024-03-22T19:39:18;18.25;;;9.80;;
78774;SDS011;68119;43.398;3.676;2024-03-22T19:41:48;20.60;;;10.77;;
78774;SDS011;68119;43.398;3.676;2024-03-22T19:44:22;24.05;;;11.63;;
78774;SDS011;68119;43.398;3.676;2024-03-22T19:46:48;24.58;;;11.73;;
78774;SDS011;68119;43.398;3.676;2024-03-22T19:49:18;22.65;;;11.55;;
78774;SDS011;68119;43.398;3.676;2024-03-22T19:51:47;19.70;;;11.10;;
78774;SDS011;68119;43.398;3.676;2024-03-22T19:54:16;26.10;;;10.25;;
78774;SDS011;68119;43.398;3.676;2024-03-22T19:56:46;20.23;;;10.88;;
78774;SDS011;68119;43.398;3.676;2024-03-22T19:59:16;22.88;;;11.45;;
78774;SDS011;68119;43.398;3.676;2024-03-22T20:01:45;22.33;;;10.98;;
78774;SDS011;68119;43.398;3.676;2024-03-22T20:04:12;19.52;;;10.90;;
78774;SDS011;68119;43.398;3.676;2024-03-22T20:06:49;20.15;;;11.13;;
78774;SDS011;68119;43.398;3.676;2024-03-22T20:09:18;20.77;;;11.00;;
78774;SDS011;68119;43.398;3.676;2024-03-22T20:14:29;29.92;;;12.23;;
78774;SDS011;68119;43.398;3.676;2024-03-22T20:17:01;23.95;;;11.43;;
78774;SDS011;68119;43.398;3.676;2024-03-22T20:19:36;21.27;;;10.90;;
78774;SDS011;68119;43.398;3.676;2024-03-22T20:22:07;24.90;;;10.95;;
78774;SDS011;68119;43.398;3.676;2024-03-22T20:24:53;20.25;;;10.98;;
78774;SDS011;68119;43.398;3.676;2024-03-22T20:27:19;23.25;;;11.43;;
78774;SDS011;68119;43.398;3.676;2024-03-22T20:29:49;25.45;;;11.38;;
78774;SDS011;68119;43.398;3.676;2024-03-22T20:32:26;26.58;;;11.35;;
78774;SDS011;68119;43.398;3.676;2024-03-22T20:34:55;17.00;;;11.35;;
78774;SDS011;68119;43.398;3.676;2024-03-22T20:37:24;24.98;;;13.18;;
